Time;durP1;ratioP1;P1;durP2;ratioP2;P2;SDS_P1;SDS_P2;PMS_P1;PMS_P2;Temp;Humidity;BMP_temperature;BMP_pressure;BME280_temperature;BME280_humidity;BME280_pressure;Samples;Min_cycle;Max_cycle;Signal;HPM_P1;HPM_P2
2022/05/03 00:00:04;;;;;;;8.85;3.78;;;;;;;16.52;51.39;97903.34;4457234;32;20111;-79
2022/05/03 00:02:43;;;;;;;9.82;3.85;;;;;;;16.91;50.13;97899.78;4443355;32;20187;-79
2022/05/03 00:05:44;;;;;;;10.50;3.75;;;;;;;17.70;47.78;97896.63;4442877;32;20156;-79
2022/05/03 00:08:27;;;;;;;9.13;3.45;;;;;;;17.81;47.24;97895.84;4443169;32;20114;-79
2022/05/03 00:11:31;;;;;;;9.25;3.87;;;;;;;17.51;48.14;97901.50;4442981;32;20105;-79
2022/05/03 00:14:09;;;;;;;8.32;3.65;;;;;;;17.32;48.86;97896.78;4457135;32;20097;-79
2022/05/03 00:16:37;;;;;;;9.10;3.30;;;;;;;17.63;47.90;97893.59;4456919;32;20171;-79
2022/05/03 00:19:05;;;;;;;8.13;3.65;;;;;;;17.71;47.42;97887.03;4442772;32;20152;-79
2022/05/03 00:21:34;;;;;;;7.57;3.30;;;;;;;17.16;48.70;97896.25;4457102;32;20158;-79
2022/05/03 00:24:01;;;;;;;8.68;3.72;;;;;;;16.29;51.17;97884.94;4456978;32;20137;-79
2022/05/03 00:26:29;;;;;;;7.80;3.17;;;;;;;16.89;49.67;97886.00;4442958;32;20124;-79
2022/05/03 00:28:57;;;;;;;7.60;3.40;;;;;;;17.10;48.78;97881.84;4442868;32;20135;-79
2022/05/03 00:31:26;;;;;;;10.50;3.95;;;;;;;17.61;47.20;97877.25;4456664;32;20603;-79
2022/05/03 00:33:54;;;;;;;8.98;3.70;;;;;;;16.73;50.10;97876.66;4456750;32;20105;-79
2022/05/03 00:36:21;;;;;;;10.00;4.18;;;;;;;16.12;52.39;97872.22;4456561;32;20080;-79
2022/05/03 00:38:49;;;;;;;7.78;3.55;;;;;;;16.47;51.65;97877.59;4456548;32;20111;-79
2022/05/03 00:41:24;;;;;;;10.55;3.80;;;;;;;16.49;51.49;97868.78;4443057;32;20113;-79
2022/05/03 00:44:55;;;;;;;9.18;3.90;;;;;;;16.72;50.77;97868.97;4456873;32;20092;-79
2022/05/03 00:46:53;;;;;;;8.93;3.62;;;;;;;17.02;49.96;97868.56;4456163;32;20123;-79
2022/05/03 00:49:35;;;;;;;10.45;3.53;;;;;;;16.97;50.09;97876.69;4456805;32;20425;-79
2022/05/03 00:52:25;;;;;;;8.52;3.65;;;;;;;16.74;50.71;97872.28;4442956;32;20123;-79
2022/05/03 00:55:07;;;;;;;8.23;3.33;;;;;;;17.01;49.76;97872.09;4442808;32;20163;-79
2022/05/03 00:57:53;;;;;;;8.60;3.90;;;;;;;17.10;49.33;97876.66;4430106;32;20093;-79
2022/05/03 01:00:22;;;;;;;8.48;3.65;;;;;;;16.59;50.08;97868.97;4442408;32;20106;-79
2022/05/03 01:03:07;;;;;;;11.88;3.50;;;;;;;16.78;49.61;97864.12;4442855;32;20430;-79
2022/05/03 01:05:45;;;;;;;8.77;3.87;;;;;;;17.13;48.61;97863.41;4456589;32;20104;-79
2022/05/03 01:08:20;;;;;;;;;;;;;;;16.88;49.78;97861.72;4442820;32;20081;-79
2022/05/03 01:10:57;;;;;;;9.75;4.22;;;;;;;16.94;48.91;97860.47;4456844;32;19980;-79
2022/05/03 01:13:30;;;;;;;7.93;3.47;;;;;;;16.66;50.58;97862.38;4456398;32;20157;-79
2022/05/03 01:16:17;;;;;;;8.30;3.95;;;;;;;16.41;51.52;97860.66;4456652;32;20259;-79
2022/05/03 01:18:54;;;;;;;9.88;4.12;;;;;;;15.03;56.16;97861.16;4442848;32;20081;-79
2022/05/03 01:21:33;;;;;;;;;;;;;;;15.23;55.96;97856.44;4442775;32;20152;-79
2022/05/03 01:24:04;;;;;;;8.52;3.60;;;;;;;15.39;55.22;97853.66;4456751;32;20240;-79
2022/05/03 01:26:49;;;;;;;10.05;3.87;;;;;;;15.60;54.61;97857.50;4456457;32;20487;-79
2022/05/03 01:29:30;;;;;;;7.60;3.50;;;;;;;16.16;52.56;97856.31;4456251;32;20076;-79
2022/05/03 01:31:59;;;;;;;8.95;3.60;;;;;;;15.99;53.05;97851.41;4456534;32;20401;-79
2022/05/03 01:34:28;;;;;;;10.23;4.00;;;;;;;15.90;52.91;97852.03;4442280;32;20173;-79
2022/05/03 01:37:18;;;;;;;9.68;3.90;;;;;;;16.22;51.66;97855.03;4456081;32;20076;-79
2022/05/03 01:40:11;;;;;;;8.80;3.70;;;;;;;16.29;51.44;97858.91;4456508;32;20145;-79
2022/05/03 01:42:56;;;;;;;9.05;3.80;;;;;;;16.63;51.00;97857.38;4456226;32;20157;-79
2022/05/03 01:45:30;;;;;;;9.90;3.95;;;;;;;15.77;53.69;97853.78;4455533;32;20157;-79
2022/05/03 01:48:23;;;;;;;9.30;3.92;;;;;;;15.97;53.25;97848.09;4442513;32;20102;-79
2022/05/03 01:51:11;;;;;;;10.90;4.30;;;;;;;16.57;51.54;97854.38;4456459;32;20093;-79
2022/05/03 01:53:45;;;;;;;10.23;4.25;;;;;;;16.59;51.25;97852.47;4442588;32;20105;-79
2022/05/03 01:56:50;;;;;;;10.68;4.12;;;;;;;16.52;51.57;97857.31;4455899;32;20094;-79
2022/05/03 01:59:38;;;;;;;9.18;4.18;;;;;;;17.20;49.31;97859.41;4456305;32;20147;-79
2022/05/03 02:02:39;;;;;;;9.10;4.07;;;;;;;17.82;47.10;97853.97;4456463;32;20152;-79
2022/05/03 02:05:07;;;;;;;9.73;4.10;;;;;;;17.56;47.89;97850.69;4429830;32;20466;-79
2022/05/03 02:07:56;;;;;;;8.82;3.78;;;;;;;16.93;49.88;97857.03;4456295;32;20477;-79
2022/05/03 02:10:36;;;;;;;8.43;3.80;;;;;;;17.31;48.69;97850.78;4455956;32;20556;-79
2022/05/03 02:14:44;;;;;;;8.32;3.53;;;;;;;17.67;47.55;97852.47;4456280;32;20152;-79
2022/05/03 02:16:31;;;;;;;8.52;3.72;;;;;;;17.44;47.98;97855.94;4455565;32;20136;-79
2022/05/03 02:19:31;;;;;;;8.77;3.55;;;;;;;17.67;47.45;97851.66;4442436;32;20448;-79
2022/05/03 02:22:07;;;;;;;8.13;3.50;;;;;;;17.57;47.72;97852.34;4456175;32;20116;-79
2022/05/03 02:24:54;;;;;;;7.57;3.35;;;;;;;16.55;50.29;97853.66;4455955;32;20125;-79
2022/05/03 02:27:21;;;;;;;8.40;3.57;;;;;;;15.79;52.78;97852.75;4456072;32;20133;-79
2022/05/03 02:29:50;;;;;;;8.10;3.53;;;;;;;15.83;53.71;97854.19;4442131;32;20447;-79
2022/05/03 02:32:27;;;;;;;8.25;3.22;;;;;;;17.51;48.20;97854.56;4455681;32;20081;-79
2022/05/03 02:34:58;;;;;;;8.05;3.40;;;;;;;17.78;47.21;97854.31;4455918;32;20132;-79
2022/05/03 02:37:35;;;;;;;7.75;3.30;;;;;;;18.10;46.28;97851.87;4455799;32;20111;-79
2022/05/03 02:40:03;;;;;;;8.23;3.67;;;;;;;18.59;44.77;97856.75;4442311;32;20118;-79
2022/05/03 02:42:31;;;;;;;7.45;3.30;;;;;;;18.75;44.31;97856.41;4456068;32;20096;-79
2022/05/03 02:45:00;;;;;;;9.02;3.50;;;;;;;19.03;43.40;97855.91;4455565;32;20100;-79
2022/05/03 02:47:28;;;;;;;9.57;3.80;;;;;;;18.93;43.59;97849.75;4455888;32;20093;-79
2022/05/03 02:50:19;;;;;;;8.05;3.50;;;;;;;18.81;43.75;97860.31;4455962;32;20148;-79
2022/05/03 02:53:07;;;;;;;8.88;3.83;;;;;;;18.63;44.52;97859.97;4455665;32;20172;-79
2022/05/03 02:55:49;;;;;;;8.23;3.85;;;;;;;18.79;44.33;97857.81;4455668;32;20077;-79
2022/05/03 02:58:44;;;;;;;7.72;3.30;;;;;;;18.08;46.36;97856.41;4455909;32;20499;-79
2022/05/03 03:04:46;;;;;;;9.13;4.05;;;;;;;18.11;46.84;97861.38;4455841;32;20099;-79
2022/05/03 03:07:16;;;;;;;10.23;4.00;;;;;;;17.73;47.91;97866.87;4441403;32;20077;-79
2022/05/03 03:09:47;;;;;;;9.43;3.90;;;;;;;18.29;46.51;97867.81;4441818;32;20508;-79
2022/05/03 03:12:39;;;;;;;7.85;3.50;;;;;;;17.27;48.71;97865.00;4455822;32;20120;-79
2022/05/03 03:15:08;;;;;;;8.27;3.72;;;;;;;17.79;47.16;97856.81;4455596;32;20105;-79
2022/05/03 03:17:50;;;;;;;8.40;3.70;;;;;;;17.50;47.85;97860.72;4455621;32;20470;-79
2022/05/03 03:20:28;;;;;;;9.43;3.80;;;;;;;18.29;45.85;97859.97;4441529;32;20112;-79
2022/05/03 03:22:55;;;;;;;7.68;3.62;;;;;;;17.73;46.92;97859.03;4455654;32;20549;-79
2022/05/03 03:25:23;;;;;;;9.07;4.07;;;;;;;17.22;48.18;97861.88;4455177;32;20085;-79
2022/05/03 03:27:51;;;;;;;9.05;3.85;;;;;;;17.08;48.96;97867.28;4455173;32;20085;-79
2022/05/03 03:30:21;;;;;;;8.05;3.70;;;;;;;17.42;48.07;97868.25;4441652;32;20532;-79
2022/05/03 03:32:50;;;;;;;8.57;3.92;;;;;;;17.71;47.22;97863.53;4455493;32;20158;-79
2022/05/03 03:35:18;;;;;;;9.13;4.12;;;;;;;17.61;47.21;97868.59;4454581;32;20098;-79
2022/05/03 03:37:47;;;;;;;8.93;3.90;;;;;;;17.64;47.15;97869.19;4441266;32;20148;-79
2022/05/03 03:40:15;;;;;;;9.57;4.03;;;;;;;17.71;46.67;97867.00;4455276;32;20102;-79
2022/05/03 03:42:43;;;;;;;9.30;4.05;;;;;;;17.97;45.55;97872.88;4454941;32;20109;-79
2022/05/03 03:45:12;;;;;;;11.43;3.62;;;;;;;17.30;47.49;97870.81;4441060;32;20107;-79
2022/05/03 03:47:41;;;;;;;10.57;3.65;;;;;;;17.94;45.80;97870.47;4454803;32;20136;-79
2022/05/03 03:50:08;;;;;;;9.25;3.87;;;;;;;17.31;47.83;97882.09;4428229;32;20136;-79
2022/05/03 03:52:41;;;;;;;8.80;4.00;;;;;;;16.94;49.24;97879.53;4441288;32;20482;-79
2022/05/03 03:55:12;;;;;;;8.82;3.53;;;;;;;17.03;49.74;97876.28;4440821;32;20571;-79
2022/05/03 03:57:39;;;;;;;8.95;4.03;;;;;;;17.59;47.53;97876.53;4455053;32;20093;-79
2022/05/03 04:00:09;;;;;;;7.37;3.53;;;;;;;17.77;46.67;97873.53;4455092;32;20123;-79
2022/05/03 04:02:36;;;;;;;9.13;3.80;;;;;;;17.87;46.18;97877.13;4440721;32;20499;-79
2022/05/03 04:05:03;;;;;;;7.80;3.92;;;;;;;18.41;44.66;97879.94;4440911;32;20124;-79
2022/05/03 04:07:30;;;;;;;9.13;3.42;;;;;;;18.43;44.71;97882.41;4455214;32;20095;-79
2022/05/03 04:09:57;;;;;;;7.53;3.25;;;;;;;18.22;45.35;97874.44;4456711;32;20100;-79
2022/05/03 04:12:24;;;;;;;7.55;3.28;;;;;;;18.63;44.33;97881.72;4457115;32;20112;-79
2022/05/03 04:14:51;;;;;;;5.97;2.85;;;;;;;18.73;44.20;97880.06;4456921;32;20147;-79
2022/05/03 04:17:18;;;;;;;7.50;2.80;;;;;;;19.34;42.60;97880.38;4456676;32;20132;-79
2022/05/03 04:19:45;;;;;;;7.47;3.10;;;;;;;19.53;42.18;97890.19;4457050;32;20157;-79
2022/05/03 04:22:28;;;;;;;6.18;2.87;;;;;;;19.99;41.19;97886.44;4443270;32;20109;-79
2022/05/03 04:24:56;;;;;;;7.55;2.80;;;;;;;20.32;40.38;97887.19;4442644;32;20448;-79
2022/05/03 04:27:23;;;;;;;7.03;3.20;;;;;;;20.77;39.49;97890.28;4442929;32;20069;-79
2022/05/03 04:29:51;;;;;;;6.53;2.62;;;;;;;21.06;38.91;97890.37;4456525;32;20160;-80
2022/05/03 04:32:20;;;;;;;6.00;2.85;;;;;;;21.28;38.24;97889.34;4443288;32;20162;-79
2022/05/03 04:34:47;;;;;;;9.93;2.80;;;;;;;21.52;37.71;97891.56;4456740;32;20098;-79
2022/05/03 04:37:14;;;;;;;110.60;10.15;;;;;;;21.47;37.53;97896.38;4456544;32;20152;-79
2022/05/03 04:39:42;;;;;;;20.92;4.03;;;;;;;20.97;38.50;97891.19;4456843;32;20436;-80
2022/05/03 04:42:09;;;;;;;7.15;2.67;;;;;;;21.81;37.09;97888.94;4443000;32;20108;-79
2022/05/03 04:44:36;;;;;;;5.75;2.58;;;;;;;22.17;36.63;97895.28;4442535;32;20092;-79
2022/05/03 04:47:04;;;;;;;7.40;2.95;;;;;;;22.47;35.61;97892.41;4456805;32;20156;-79
2022/05/03 04:49:31;;;;;;;22.25;3.15;;;;;;;22.60;35.68;97896.53;4442910;32;20417;-79
2022/05/03 04:51:58;;;;;;;6.22;2.50;;;;;;;22.67;35.75;97898.44;4442583;32;20105;-79
2022/05/03 04:54:25;;;;;;;8.10;3.10;;;;;;;23.25;35.28;97894.69;4456696;32;20103;-80
2022/05/03 04:57:02;;;;;;;6.28;2.85;;;;;;;24.07;33.79;97902.34;4456803;32;20164;-80
2022/05/03 04:59:29;;;;;;;7.45;2.87;;;;;;;24.68;32.49;97898.81;4442577;32;21122;-80
2022/05/03 05:01:56;;;;;;;8.88;2.55;;;;;;;25.49;31.16;97903.53;4456785;32;20447;-80
2022/05/03 05:04:23;;;;;;;15.82;3.72;;;;;;;26.08;29.95;97893.66;4456699;32;20470;-80
2022/05/03 05:06:50;;;;;;;10.50;2.80;;;;;;;26.45;29.77;97898.41;4456318;32;20164;-80
2022/05/03 05:09:19;;;;;;;6.78;2.78;;;;;;;26.99;29.00;97895.06;4456660;32;20153;-80
2022/05/03 05:11:47;;;;;;;5.37;2.60;;;;;;;27.49;27.61;97909.75;4456367;32;20157;-80
2022/05/03 05:14:14;;;;;;;5.82;2.67;;;;;;;28.41;26.93;97905.22;4456634;32;20189;-80
2022/05/03 05:16:41;;;;;;;6.62;2.72;;;;;;;28.58;26.64;97903.19;4456582;32;20536;-80
2022/05/03 05:19:08;;;;;;;7.30;3.05;;;;;;;29.17;25.87;97908.50;4455407;32;20134;-80
2022/05/03 05:21:35;;;;;;;5.15;2.87;;;;;;;30.09;24.74;97909.44;4456596;32;20077;-80
2022/05/03 05:24:02;;;;;;;4.25;2.42;;;;;;;30.51;24.17;97903.19;4456632;32;20124;-81
2022/05/03 05:26:30;;;;;;;5.35;2.53;;;;;;;31.15;23.71;97903.94;4456060;32;20132;-81
2022/05/03 05:28:58;;;;;;;5.40;2.40;;;;;;;31.38;23.54;97901.81;4442193;32;20123;-77
2022/05/03 05:31:25;;;;;;;4.80;2.45;;;;;;;32.09;22.66;97912.78;4456608;32;20097;-78
2022/05/03 05:33:52;;;;;;;5.00;2.45;;;;;;;32.27;22.66;97914.03;4456150;32;20093;-78
2022/05/03 05:36:19;;;;;;;3.92;2.45;;;;;;;32.50;22.50;97907.22;4456111;32;20073;-79
2022/05/03 05:38:46;;;;;;;6.93;2.80;;;;;;;32.40;22.79;97917.53;4456471;32;20148;-77
2022/05/03 05:41:14;;;;;;;6.15;2.80;;;;;;;32.87;22.31;97914.78;4456088;32;20176;-78
2022/05/03 05:43:42;;;;;;;6.70;2.50;;;;;;;33.08;22.01;97914.50;4456484;32;20168;-78
2022/05/03 05:46:10;;;;;;;6.70;3.05;;;;;;;33.26;21.76;97914.59;4456263;32;20132;-78
2022/05/03 05:48:39;;;;;;;5.50;2.55;;;;;;;33.60;21.36;97916.12;4456104;32;20089;-78
2022/05/03 05:51:06;;;;;;;4.75;2.25;;;;;;;33.45;21.93;97920.09;4456456;32;20124;-78
2022/05/03 05:53:33;;;;;;;6.18;3.03;;;;;;;33.58;21.58;97915.47;4456300;32;20089;-78
2022/05/03 05:56:02;;;;;;;6.75;2.60;;;;;;;32.87;21.94;97910.25;4455734;32;20190;-78
2022/05/03 05:58:30;;;;;;;9.50;3.10;;;;;;;32.94;20.70;97916.38;4456146;32;20104;-78
2022/05/03 06:00:58;;;;;;;5.87;2.50;;;;;;;32.49;21.57;97916.28;4456020;32;20107;-78
2022/05/03 06:03:27;;;;;;;5.97;2.58;;;;;;;31.70;21.69;97910.09;4456393;32;20405;-80
2022/05/03 06:06:32;;;;;;;5.93;2.67;;;;;;;31.51;22.52;97911.69;4442427;32;20115;-79
2022/05/03 06:08:59;;;;;;;5.10;2.62;;;;;;;30.96;23.30;97913.53;4455983;32;20136;-79
2022/05/03 06:11:27;;;;;;;5.93;2.30;;;;;;;30.80;23.43;97912.81;4456635;32;20136;-80
2022/05/03 06:13:54;;;;;;;7.32;2.62;;;;;;;30.23;23.64;97919.19;4456373;32;20081;-80
2022/05/03 06:16:21;;;;;;;9.32;2.90;;;;;;;30.85;22.66;97916.75;4455839;32;20081;-81
2022/05/03 06:18:48;;;;;;;5.72;2.55;;;;;;;29.91;24.61;97914.41;4456091;32;20112;-81
2022/05/03 06:21:15;;;;;;;4.82;2.53;;;;;;;30.71;23.57;97915.84;4456320;32;20435;-81
2022/05/03 06:23:42;;;;;;;7.50;2.50;;;;;;;30.40;23.47;97913.56;4456036;32;20429;-81
2022/05/03 06:26:09;;;;;;;9.38;2.85;;;;;;;30.52;23.45;97915.53;4442084;32;20069;-81
2022/05/03 06:28:44;;;;;;;14.98;3.10;;;;;;;31.04;24.21;97916.81;4443071;32;20096;-80
2022/05/03 06:31:11;;;;;;;5.32;2.50;;;;;;;31.01;24.38;97919.06;4428778;32;20135;-80
2022/05/03 06:33:38;;;;;;;7.43;2.85;;;;;;;31.09;24.13;97921.56;4435703;32;655671;-80
2022/05/03 06:36:10;;;;;;;7.15;2.92;;;;;;;30.24;24.58;97926.16;4455524;32;20077;-80
2022/05/03 06:38:37;;;;;;;5.93;2.47;;;;;;;30.75;23.22;97925.91;4456089;32;20112;-80
2022/05/03 06:41:04;;;;;;;7.47;2.62;;;;;;;29.41;25.08;97928.59;4456034;32;20401;-80
2022/05/03 06:43:31;;;;;;;9.40;3.30;;;;;;;29.37;24.86;97925.50;4441686;32;20167;-81
2022/05/03 06:45:59;;;;;;;8.43;2.97;;;;;;;28.87;26.51;97926.28;4455857;32;20133;-80
2022/05/03 06:48:26;;;;;;;7.75;2.95;;;;;;;28.57;26.49;97925.44;4441583;32;20113;-79
2022/05/03 06:50:53;;;;;;;7.53;2.90;;;;;;;28.42;26.16;97928.09;4441509;32;20522;-79
2022/05/03 06:53:20;;;;;;;6.97;3.80;;;;;;;29.39;25.33;97932.25;4455105;32;20103;-79
2022/05/03 06:55:47;;;;;;;6.78;3.10;;;;;;;30.13;23.54;97932.00;4455714;32;20152;-79
2022/05/03 06:58:14;;;;;;;6.57;2.95;;;;;;;29.72;24.60;97933.66;4455523;32;20111;-81
2022/05/03 07:00:41;;;;;;;5.93;2.87;;;;;;;29.92;24.79;97937.31;4455812;32;20400;-81
2022/05/03 07:03:08;;;;;;;5.55;2.85;;;;;;;29.06;25.69;97928.41;4441926;32;20089;-80
2022/05/03 07:05:35;;;;;;;9.20;3.10;;;;;;;29.80;24.78;97936.19;4455430;32;20133;-81
2022/05/03 07:08:02;;;;;;;6.75;2.70;;;;;;;29.16;25.31;97936.91;4455636;32;20215;-82
2022/05/03 07:10:29;;;;;;;9.40;3.22;;;;;;;28.84;25.69;97934.63;4455549;32;20160;-82
2022/05/03 07:12:56;;;;;;;8.45;3.20;;;;;;;29.67;25.56;97939.56;4455567;32;20148;-78
2022/05/03 07:15:24;;;;;;;8.98;3.10;;;;;;;30.56;24.25;97936.41;4455323;32;20109;-78
2022/05/03 07:23:23;;;;;;;6.45;2.90;;;;;;;32.44;22.02;97933.97;4455472;32;20085;-77
2022/05/03 07:25:50;;;;;;;10.18;3.17;;;;;;;31.29;22.97;97933.16;4455094;32;20081;-77
2022/05/03 07:28:17;;;;;;;7.87;2.80;;;;;;;32.15;22.19;97941.34;4441469;32;20135;-77
2022/05/03 07:30:44;;;;;;;5.53;2.72;;;;;;;33.03;21.02;97935.69;4455340;32;20101;-77
2022/05/03 07:33:11;;;;;;;5.12;2.55;;;;;;;31.25;22.98;97931.06;4454930;32;20085;-77
2022/05/03 07:35:38;;;;;;;7.72;2.72;;;;;;;32.32;22.10;97940.94;4455036;32;20491;-77
2022/05/03 07:38:05;;;;;;;6.62;2.70;;;;;;;32.69;22.39;97937.59;4455198;32;20093;-77
2022/05/03 07:40:32;;;;;;;5.62;2.28;;;;;;;32.70;22.61;97943.78;4454845;32;20148;-77
2022/05/03 07:43:01;;;;;;;5.75;2.50;;;;;;;32.08;22.15;97939.69;4455796;32;20137;-77
2022/05/03 07:45:29;;;;;;;9.98;2.70;;;;;;;30.83;23.97;97946.22;4456960;32;20084;-77
2022/05/03 07:48:01;;;;;;;9.25;2.60;;;;;;;30.26;24.61;97941.94;4456773;32;20151;-77
2022/05/03 07:50:28;;;;;;;4.62;2.50;;;;;;;29.87;24.10;97943.19;4457192;32;20081;-77
2022/05/03 07:52:55;;;;;;;6.18;2.90;;;;;;;27.65;26.62;97939.66;4457196;32;20172;-77
2022/05/03 07:55:22;;;;;;;7.85;2.65;;;;;;;28.05;26.33;97939.50;4456714;32;20495;-78
2022/05/03 07:57:49;;;;;;;6.10;2.55;;;;;;;27.85;27.53;97937.31;4456978;32;20172;-77
2022/05/03 08:00:17;;;;;;;5.95;2.22;;;;;;;28.16;26.62;97939.91;4456857;32;20131;-78
2022/05/03 08:02:44;;;;;;;5.80;2.42;;;;;;;28.79;25.13;97938.62;4457148;32;20466;-77
2022/05/03 08:05:11;;;;;;;7.50;2.60;;;;;;;29.49;23.75;97941.81;4442954;32;20464;-78
2022/05/03 08:07:38;;;;;;;5.65;2.37;;;;;;;29.28;24.47;97940.72;4456759;32;20467;-78
2022/05/03 08:10:06;;;;;;;6.57;2.67;;;;;;;29.79;23.93;97946.00;4456883;32;20150;-79
2022/05/03 08:12:33;;;;;;;6.30;2.20;;;;;;;28.49;25.52;97944.91;4443127;32;20114;-79
2022/05/03 08:15:00;;;;;;;3.78;2.15;;;;;;;28.98;24.34;97944.44;4456566;32;20085;-79
2022/05/03 08:17:28;;;;;;;7.37;2.45;;;;;;;30.41;23.34;97950.66;4457002;32;20088;-79
2022/05/03 08:19:55;;;;;;;4.65;2.30;;;;;;;30.80;23.24;97947.44;4457055;32;20474;-79
2022/05/03 08:22:22;;;;;;;7.20;2.70;;;;;;;28.99;25.04;97954.03;4456568;32;20142;-79
2022/05/03 08:24:49;;;;;;;4.75;2.40;;;;;;;27.74;27.27;97943.03;4456744;32;20077;-78
2022/05/03 08:27:16;;;;;;;6.28;2.70;;;;;;;26.68;28.78;97946.16;4456964;32;20113;-78
2022/05/03 08:29:43;;;;;;;4.53;2.20;;;;;;;28.62;25.30;97946.97;4456489;32;20112;-78
2022/05/03 08:32:10;;;;;;;4.95;2.42;;;;;;;29.12;24.11;97951.53;4456869;32;20132;-78
2022/05/03 08:34:37;;;;;;;8.13;2.67;;;;;;;28.20;25.46;97948.34;4456773;32;20078;-78
2022/05/03 08:42:35;;;;;;;8.35;2.50;;;;;;;30.78;22.64;97954.81;4456548;32;20174;-78
2022/05/03 08:45:02;;;;;;;4.12;2.40;;;;;;;30.41;23.83;97953.31;4456841;32;20419;-77
2022/05/03 08:47:30;;;;;;;5.90;2.40;;;;;;;29.15;25.29;97953.03;4456645;32;20143;-78
2022/05/03 08:50:03;;;;;;;5.87;2.58;;;;;;;27.61;26.35;97950.72;4442311;32;20464;-77
2022/05/03 08:52:34;;;;;;;6.00;2.62;;;;;;;28.40;24.76;97948.69;4456768;32;20375;-77
2022/05/03 08:55:01;;;;;;;5.55;2.72;;;;;;;30.80;22.56;97954.62;4442524;32;20097;-77
2022/05/03 08:57:28;;;;;;;6.18;2.53;;;;;;;31.25;20.88;97961.22;4456277;32;20111;-77
2022/05/03 08:59:56;;;;;;;4.95;2.40;;;;;;;30.74;22.35;97961.56;4456668;32;20124;-80
2022/05/03 09:02:23;;;;;;;4.72;2.30;;;;;;;30.91;21.54;97955.91;4456701;32;20176;-80
2022/05/03 09:04:51;;;;;;;5.40;2.78;;;;;;;31.83;20.62;97953.63;4456271;32;20337;-80
2022/05/03 09:07:25;;;;;;;6.47;2.60;;;;;;;30.84;22.44;97947.91;4456721;32;20104;-79
2022/05/03 09:09:53;;;;;;;6.12;2.60;;;;;;;30.52;22.75;97947.47;4456610;32;20535;-79
2022/05/03 09:12:26;;;;;;;6.37;2.60;;;;;;;31.37;21.51;97962.31;4456120;32;20139;-79
2022/05/03 09:14:58;;;;;;;6.30;2.70;;;;;;;29.70;23.28;97949.81;4456491;32;20228;-79
2022/05/03 09:17:44;;;;;;;6.55;2.80;;;;;;;27.63;26.00;97949.53;4442342;32;20421;-79
2022/05/03 09:26:19;;;;;;;6.57;2.85;;;;;;;30.04;21.93;97945.63;4456167;32;20104;-78
2022/05/03 09:28:57;;;;;;;6.07;2.75;;;;;;;30.11;22.14;97949.19;4456563;32;20144;-79
2022/05/03 09:31:35;;;;;;;7.80;2.90;;;;;;;31.07;19.71;97937.75;4456195;32;20164;-79
2022/05/03 09:34:13;;;;;;;5.10;2.62;;;;;;;31.59;19.54;97932.84;4456495;32;20135;-79
2022/05/03 09:36:43;;;;;;;8.40;3.25;;;;;;;30.95;22.12;97938.53;4456157;32;20103;-79
2022/05/03 09:39:32;;;;;;;10.02;3.08;;;;;;;29.78;23.46;97935.56;4455555;32;20150;-80
2022/05/03 09:42:06;;;;;;;7.12;3.30;;;;;;;29.04;23.78;97936.56;4442315;32;20169;-80
2022/05/03 09:44:36;;;;;;;5.15;2.67;;;;;;;29.29;22.87;97945.03;4456330;32;20405;-79
2022/05/03 09:47:10;;;;;;;7.70;2.90;;;;;;;28.91;24.06;97933.72;4455723;32;20081;-79
2022/05/03 09:49:39;;;;;;;6.53;2.90;;;;;;;28.53;24.52;97933.78;4442188;32;20548;-79
2022/05/03 09:52:09;;;;;;;5.55;2.78;;;;;;;28.70;24.59;97934.41;4456391;32;20148;-79
2022/05/03 09:54:46;;;;;;;8.38;2.80;;;;;;;29.88;23.89;97934.22;4455811;32;20116;-79
2022/05/03 09:57:21;;;;;;;5.60;2.75;;;;;;;30.69;23.29;97940.00;4456208;32;20082;-78
2022/05/03 09:59:50;;;;;;;4.65;2.37;;;;;;;29.92;26.33;97939.97;4456051;32;20097;-78
2022/05/03 10:02:21;;;;;;;7.93;2.50;;;;;;;29.34;28.15;97928.50;4456201;32;20466;-78
2022/05/03 10:04:50;;;;;;;8.82;2.80;;;;;;;28.62;30.21;97923.09;4442162;32;20101;-79
2022/05/03 10:07:18;;;;;;;7.97;2.97;;;;;;;28.70;29.21;97921.13;4455372;32;20364;-79
2022/05/03 10:09:45;;;;;;;6.68;2.87;;;;;;;28.94;26.59;97922.75;4442210;32;20427;-79
2022/05/03 10:12:14;;;;;;;5.55;2.67;;;;;;;28.70;27.08;97926.44;4456288;32;20093;-79
2022/05/03 10:14:42;;;;;;;6.18;2.58;;;;;;;28.48;28.69;97925.53;4441866;32;20105;-78
2022/05/03 10:20:38;;;;;;;5.07;2.30;;;;;;;26.31;29.91;97920.25;4444493;32;20096;-79
2022/05/03 10:23:20;;;;;;;6.35;2.33;;;;;;;26.57;28.24;97925.34;4444743;32;20150;-79
2022/05/03 10:25:47;;;;;;;5.90;2.40;;;;;;;26.05;27.00;97930.16;4456149;32;20148;-80
2022/05/03 10:28:15;;;;;;;3.90;2.15;;;;;;;25.66;28.43;97922.88;4455811;32;20093;-79
2022/05/03 10:31:07;;;;;;;5.18;2.28;;;;;;;26.95;27.94;97914.97;4442023;32;20156;-79
2022/05/03 10:33:35;;;;;;;3.15;1.80;;;;;;;27.85;26.92;97920.59;4456064;32;20172;-78
2022/05/03 10:36:35;;;;;;;4.15;1.90;;;;;;;27.62;25.85;97917.91;4455450;32;20582;-79
2022/05/03 10:39:11;;;;;;;4.53;2.10;;;;;;;28.07;25.30;97916.28;4456030;32;20107;-79
2022/05/03 10:41:56;;;;;;;5.40;2.10;;;;;;;27.99;25.20;97919.84;4455539;32;20156;-80
2022/05/03 10:44:52;;;;;;;8.82;2.40;;;;;;;27.35;25.82;97909.50;4442040;32;20108;-79
2022/05/03 10:47:38;;;;;;;3.45;2.10;;;;;;;27.63;26.31;97916.91;4455934;32;20103;-79
2022/05/03 10:50:17;;;;;;;5.05;2.00;;;;;;;27.01;26.78;97912.47;4455576;32;20091;-79
2022/05/03 10:52:59;;;;;;;5.28;2.28;;;;;;;26.28;26.98;97911.84;4456048;32;20101;-79
2022/05/03 10:55:35;;;;;;;7.72;2.60;;;;;;;26.67;27.93;97915.38;4455777;32;20492;-79
2022/05/03 10:58:25;;;;;;;5.40;2.60;;;;;;;27.69;26.60;97926.03;4455876;32;20466;-79
2022/05/03 11:01:21;;;;;;;7.65;2.70;;;;;;;28.29;24.43;97928.72;4455910;32;20107;-79
2022/05/03 11:03:48;;;;;;;5.75;2.67;;;;;;;27.72;27.00;97934.44;4459641;32;20100;-81
2022/05/03 11:06:18;;;;;;;6.30;2.60;;;;;;;25.79;29.55;97931.16;4456908;32;20105;-79
2022/05/03 11:14:24;;;;;;;8.55;2.87;;;;;;;24.33;35.50;97927.94;4455640;32;20127;-78
2022/05/03 11:17:08;;;;;;;5.65;2.70;;;;;;;24.21;36.17;97925.50;4454540;32;20442;-79
2022/05/03 11:19:38;;;;;;;6.22;2.95;;;;;;;23.03;38.48;97922.25;4455762;32;20104;-79
2022/05/03 11:22:13;;;;;;;8.32;3.62;;;;;;;23.51;38.10;97929.03;4455498;32;20077;-79
2022/05/03 11:24:44;;;;;;;5.57;2.90;;;;;;;23.00;38.17;97923.38;4441214;32;20108;-79
2022/05/03 11:27:13;;;;;;;6.75;2.58;;;;;;;23.02;36.87;97917.94;4455615;32;20145;-79
2022/05/03 11:29:57;;;;;;;6.90;3.03;;;;;;;23.02;36.87;97925.84;4455373;32;20100;-79
2022/05/03 11:32:30;;;;;;;4.90;2.42;;;;;;;22.81;37.56;97924.25;4455016;32;20136;-79
2022/05/03 11:35:01;;;;;;;7.50;3.22;;;;;;;23.02;35.88;97921.41;4455656;32;20112;-78
2022/05/03 11:37:28;;;;;;;5.60;2.80;;;;;;;22.79;36.38;97923.56;4456455;32;20120;-78
2022/05/03 11:40:08;;;;;;;11.10;2.87;;;;;;;21.87;37.68;97919.87;4455021;32;20149;-78
2022/05/03 11:42:40;;;;;;;6.70;2.65;;;;;;;21.92;38.90;97918.50;4441460;32;20104;-78
2022/05/03 11:45:08;;;;;;;4.70;2.50;;;;;;;21.00;41.64;97915.34;4454796;32;20156;-78
2022/05/03 11:47:37;;;;;;;7.85;3.08;;;;;;;20.41;45.04;97923.88;4455194;32;20360;-78
2022/05/03 11:50:05;;;;;;;5.97;2.80;;;;;;;20.06;47.38;97924.25;4441132;32;20100;-79
2022/05/03 11:58:06;;;;;;;5.45;2.62;;;;;;;19.24;51.01;97917.88;4455060;32;20089;-79
2022/05/03 12:00:44;;;;;;;4.60;2.17;;;;;;;19.19;51.58;97918.25;4454717;32;20103;-78
2022/05/03 12:03:11;;;;;;;6.82;2.47;;;;;;;19.81;49.81;97919.38;4441240;32;20115;-79
2022/05/03 12:05:40;;;;;;;5.60;2.35;;;;;;;19.80;50.17;97915.13;4454821;32;20117;-79
2022/05/03 12:08:18;;;;;;;5.18;2.05;;;;;;;20.23;47.59;97907.97;4454621;32;20112;-79
2022/05/03 12:10:45;;;;;;;5.40;2.20;;;;;;;20.82;46.29;97905.63;4454910;32;20088;-79
2022/05/03 12:13:14;;;;;;;4.70;2.33;;;;;;;21.08;46.78;97904.19;4454525;32;20069;-79
2022/05/03 12:15:46;;;;;;;6.37;2.30;;;;;;;21.80;43.71;97896.00;4454648;32;20121;-79
2022/05/03 12:18:16;;;;;;;7.22;2.28;;;;;;;22.36;42.02;97902.28;4440904;32;20514;-80
2022/05/03 12:20:52;;;;;;;4.25;2.00;;;;;;;23.11;40.09;97896.03;4454355;32;20105;-79
2022/05/03 12:23:22;;;;;;;7.05;2.25;;;;;;;23.48;38.11;97892.44;4454843;32;20081;-80
2022/05/03 12:25:51;;;;;;;4.35;2.00;;;;;;;23.81;36.89;97883.88;4454474;32;20345;-79
2022/05/03 12:28:19;;;;;;;5.12;2.22;;;;;;;23.53;36.25;97888.38;4454572;32;20432;-79
2022/05/03 12:30:55;;;;;;;4.60;2.20;;;;;;;23.07;38.38;97887.59;4443026;32;20099;-79
2022/05/03 12:33:26;;;;;;;4.18;2.10;;;;;;;23.36;38.21;97884.75;4443210;32;20099;-79